Terminal Aerodrome Forecast
Issued by NWS

Home | Current Version | Previous Version | Graphics & Text | Print | Product List | Glossary On
Versions: 1 2 3 4 5 6 7 8 9 10 11 12 13
000
FTUS43 KBIS 301739
TAFDIK
TAF
KDIK 301739Z 3018/3118 25008G16KT P6SM SCT080 BKN250
     FM302000 29014G22KT P6SM VCSH BKN080 BKN250
     FM310100 34008KT P6SM SCT080 BKN250
     FM311400 29018G26KT P6SM SCT080=

USA.gov is the U.S. government's official web portal to all federal, state and local government web resources and services.